sensor_id;sensor_type;location;lat;lon;timestamp;pressure;altitude;pressure_sealevel;temperature;humidity
47430;BME280;33181;49.246;7.372;2023-12-28T00:01:29;98855.81;;;7.89;68.47
47430;BME280;33181;49.246;7.372;2023-12-28T00:03:55;98869.16;;;7.97;68.77
47430;BME280;33181;49.246;7.372;2023-12-28T00:06:20;98871.69;;;7.99;68.29
47430;BME280;33181;49.246;7.372;2023-12-28T00:08:46;98878.19;;;8.06;68.28
47430;BME280;33181;49.246;7.372;2023-12-28T00:11:12;98873.69;;;8.08;68.27
47430;BME280;33181;49.246;7.372;2023-12-28T00:13:38;98871.06;;;8.08;68.12
47430;BME280;33181;49.246;7.372;2023-12-28T00:16:04;98866.66;;;8.21;67.53
47430;BME280;33181;49.246;7.372;2023-12-28T00:18:30;98857.25;;;8.19;67.12
47430;BME280;33181;49.246;7.372;2023-12-28T00:20:55;98857.88;;;8.22;67.22
47430;BME280;33181;49.246;7.372;2023-12-28T00:23:21;98858.94;;;8.32;66.89
47430;BME280;33181;49.246;7.372;2023-12-28T00:25:47;98863.09;;;8.35;66.71
47430;BME280;33181;49.246;7.372;2023-12-28T00:28:13;98846.53;;;8.34;66.68
47430;BME280;33181;49.246;7.372;2023-12-28T00:30:38;98849.38;;;8.31;66.55
47430;BME280;33181;49.246;7.372;2023-12-28T00:33:04;98854.31;;;8.36;66.56
47430;BME280;33181;49.246;7.372;2023-12-28T00:35:30;98854.97;;;8.40;66.18
47430;BME280;33181;49.246;7.372;2023-12-28T00:37:55;98842.16;;;8.48;66.18
47430;BME280;33181;49.246;7.372;2023-12-28T00:40:21;98842.69;;;8.53;66.44
47430;BME280;33181;49.246;7.372;2023-12-28T00:42:48;98844.47;;;8.52;66.30
47430;BME280;33181;49.246;7.372;2023-12-28T00:45:14;98849.97;;;8.61;65.88
47430;BME280;33181;49.246;7.372;2023-12-28T00:47:40;98841.00;;;8.52;65.98
47430;BME280;33181;49.246;7.372;2023-12-28T00:50:09;98832.59;;;8.59;66.42
47430;BME280;33181;49.246;7.372;2023-12-28T00:52:40;98838.88;;;8.57;65.91
47430;BME280;33181;49.246;7.372;2023-12-28T00:55:06;98840.44;;;8.59;65.04
47430;BME280;33181;49.246;7.372;2023-12-28T00:57:33;98839.94;;;8.67;65.30
47430;BME280;33181;49.246;7.372;2023-12-28T00:59:59;98833.38;;;8.73;64.68
47430;BME280;33181;49.246;7.372;2023-12-28T01:02:25;98834.97;;;8.75;64.86
47430;BME280;33181;49.246;7.372;2023-12-28T01:04:51;98839.16;;;8.78;64.47
47430;BME280;33181;49.246;7.372;2023-12-28T01:07:17;98848.56;;;8.80;64.30
47430;BME280;33181;49.246;7.372;2023-12-28T01:09:42;98850.31;;;8.93;64.77
47430;BME280;33181;49.246;7.372;2023-12-28T01:12:08;98859.84;;;8.94;63.92
47430;BME280;33181;49.246;7.372;2023-12-28T01:14:34;98859.97;;;8.92;63.33
47430;BME280;33181;49.246;7.372;2023-12-28T01:17:00;98866.03;;;8.93;63.80
47430;BME280;33181;49.246;7.372;2023-12-28T01:19:25;98860.13;;;9.02;64.19
47430;BME280;33181;49.246;7.372;2023-12-28T01:21:51;98866.06;;;9.04;63.43
47430;BME280;33181;49.246;7.372;2023-12-28T01:24:17;98875.41;;;9.08;64.26
47430;BME280;33181;49.246;7.372;2023-12-28T01:26:43;98867.63;;;9.07;65.78
47430;BME280;33181;49.246;7.372;2023-12-28T01:29:08;98868.09;;;9.00;66.30
47430;BME280;33181;49.246;7.372;2023-12-28T01:31:34;98869.75;;;9.01;67.17
47430;BME280;33181;49.246;7.372;2023-12-28T01:34:00;98874.16;;;9.01;68.47
47430;BME280;33181;49.246;7.372;2023-12-28T01:36:26;98882.00;;;9.01;69.19
47430;BME280;33181;49.246;7.372;2023-12-28T01:38:52;98896.59;;;9.05;68.22
47430;BME280;33181;49.246;7.372;2023-12-28T01:41:18;98898.13;;;9.08;68.19
47430;BME280;33181;49.246;7.372;2023-12-28T01:43:44;98903.78;;;9.14;68.10
47430;BME280;33181;49.246;7.372;2023-12-28T01:46:16;98902.66;;;9.05;67.60
47430;BME280;33181;49.246;7.372;2023-12-28T01:48:44;98912.78;;;9.10;67.34
47430;BME280;33181;49.246;7.372;2023-12-28T01:51:12;98928.25;;;9.26;67.49
47430;BME280;33181;49.246;7.372;2023-12-28T01:53:39;98917.28;;;9.21;66.55
47430;BME280;33181;49.246;7.372;2023-12-28T01:56:06;98928.91;;;9.17;67.57
47430;BME280;33181;49.246;7.372;2023-12-28T01:58:34;98931.34;;;9.07;67.71
47430;BME280;33181;49.246;7.372;2023-12-28T02:01:01;98929.13;;;9.14;68.77
47430;BME280;33181;49.246;7.372;2023-12-28T02:03:27;98943.22;;;9.00;69.58
47430;BME280;33181;49.246;7.372;2023-12-28T02:05:54;98942.00;;;8.93;70.98
47430;BME280;33181;49.246;7.372;2023-12-28T02:08:20;98948.72;;;8.84;73.07
47430;BME280;33181;49.246;7.372;2023-12-28T02:10:46;98955.63;;;8.72;74.90
47430;BME280;33181;49.246;7.372;2023-12-28T02:13:12;98954.09;;;8.57;77.70
47430;BME280;33181;49.246;7.372;2023-12-28T02:15:38;98959.66;;;8.40;80.16
47430;BME280;33181;49.246;7.372;2023-12-28T02:18:20;98966.72;;;8.25;82.30
47430;BME280;33181;49.246;7.372;2023-12-28T02:20:47;98967.88;;;8.21;84.03
47430;BME280;33181;49.246;7.372;2023-12-28T02:23:14;98974.34;;;8.15;86.61
47430;BME280;33181;49.246;7.372;2023-12-28T02:25:40;98974.22;;;8.04;88.25
47430;BME280;33181;49.246;7.372;2023-12-28T02:28:06;98974.47;;;8.01;89.71
47430;BME280;33181;49.246;7.372;2023-12-28T02:30:32;98971.06;;;7.86;90.15
47430;BME280;33181;49.246;7.372;2023-12-28T02:33:21;98972.38;;;7.66;92.53
47430;BME280;33181;49.246;7.372;2023-12-28T02:36:04;98974.56;;;7.72;92.43
47430;BME280;33181;49.246;7.372;2023-12-28T02:38:36;98966.84;;;7.71;92.81
47430;BME280;33181;49.246;7.372;2023-12-28T02:41:39;98965.47;;;7.65;94.23
47430;BME280;33181;49.246;7.372;2023-12-28T02:44:05;98975.00;;;7.66;94.86
47430;BME280;33181;49.246;7.372;2023-12-28T02:46:31;98977.16;;;7.59;94.62
47430;BME280;33181;49.246;7.372;2023-12-28T02:48:57;98967.78;;;7.42;95.43
47430;BME280;33181;49.246;7.372;2023-12-28T02:51:25;98980.28;;;7.52;95.71
47430;BME280;33181;49.246;7.372;2023-12-28T02:53:51;98975.69;;;7.55;95.69
47430;BME280;33181;49.246;7.372;2023-12-28T02:56:16;98966.44;;;7.50;95.97
47430;BME280;33181;49.246;7.372;2023-12-28T02:58:42;98965.19;;;7.42;95.66
47430;BME280;33181;49.246;7.372;2023-12-28T03:01:08;98968.63;;;7.43;96.44
47430;BME280;33181;49.246;7.372;2023-12-28T03:03:33;98962.13;;;7.36;97.36
47430;BME280;33181;49.246;7.372;2023-12-28T03:05:59;98958.56;;;7.37;97.90
47430;BME280;33181;49.246;7.372;2023-12-28T03:08:25;98955.34;;;7.46;97.44
47430;BME280;33181;49.246;7.372;2023-12-28T03:10:50;98954.72;;;7.42;97.77
47430;BME280;33181;49.246;7.372;2023-12-28T03:13:18;98943.13;;;7.47;97.52
47430;BME280;33181;49.246;7.372;2023-12-28T03:15:44;98944.00;;;7.47;97.97
47430;BME280;33181;49.246;7.372;2023-12-28T03:18:09;98946.09;;;7.55;97.76
47430;BME280;33181;49.246;7.372;2023-12-28T03:20:35;98953.50;;;7.48;98.20
47430;BME280;33181;49.246;7.372;2023-12-28T03:23:01;98942.06;;;7.36;99.39
47430;BME280;33181;49.246;7.372;2023-12-28T03:25:26;98944.19;;;7.44;99.90
47430;BME280;33181;49.246;7.372;2023-12-28T03:27:52;98937.66;;;7.37;100.00
47430;BME280;33181;49.246;7.372;2023-12-28T03:30:20;98944.19;;;7.44;99.88
47430;BME280;33181;49.246;7.372;2023-12-28T03:32:46;98934.91;;;7.26;100.00
47430;BME280;33181;49.246;7.372;2023-12-28T03:35:11;98940.00;;;7.41;100.00
47430;BME280;33181;49.246;7.372;2023-12-28T03:37:37;98925.78;;;7.46;100.00
47430;BME280;33181;49.246;7.372;2023-12-28T03:40:04;98928.38;;;7.46;100.00
47430;BME280;33181;49.246;7.372;2023-12-28T03:42:30;98937.19;;;7.45;100.00
47430;BME280;33181;49.246;7.372;2023-12-28T03:44:56;98935.88;;;7.37;100.00
47430;BME280;33181;49.246;7.372;2023-12-28T03:47:21;98932.03;;;7.43;100.00
47430;BME280;33181;49.246;7.372;2023-12-28T03:49:48;98945.09;;;7.43;100.00
47430;BME280;33181;49.246;7.372;2023-12-28T03:52:14;98948.34;;;7.47;100.00
47430;BME280;33181;49.246;7.372;2023-12-28T03:54:40;98946.81;;;7.44;100.00
47430;BME280;33181;49.246;7.372;2023-12-28T03:57:05;98940.00;;;7.41;100.00
47430;BME280;33181;49.246;7.372;2023-12-28T03:59:31;98935.88;;;7.37;100.00
47430;BME280;33181;49.246;7.372;2023-12-28T04:01:57;98928.44;;;7.31;100.00
47430;BME280;33181;49.246;7.372;2023-12-28T04:04:22;98928.16;;;7.36;100.00
47430;BME280;33181;49.246;7.372;2023-12-28T04:06:48;98930.56;;;7.39;100.00
47430;BME280;33181;49.246;7.372;2023-12-28T04:09:14;98931.50;;;7.38;100.00
47430;BME280;33181;49.246;7.372;2023-12-28T04:11:40;98941.41;;;7.33;100.00
47430;BME280;33181;49.246;7.372;2023-12-28T04:14:05;98939.50;;;7.22;100.00
47430;BME280;33181;49.246;7.372;2023-12-28T04:16:31;98946.00;;;7.29;100.00
47430;BME280;33181;49.246;7.372;2023-12-28T04:18:57;98925.38;;;7.25;100.00
47430;BME280;33181;49.246;7.372;2023-12-28T04:21:22;98941.56;;;7.17;100.00
47430;BME280;33181;49.246;7.372;2023-12-28T04:23:48;98946.94;;;7.28;100.00
47430;BME280;33181;49.246;7.372;2023-12-28T04:26:17;98950.09;;;7.33;100.00
47430;BME280;33181;49.246;7.372;2023-12-28T04:28:43;98955.13;;;7.36;100.00
47430;BME280;33181;49.246;7.372;2023-12-28T04:31:08;98956.25;;;7.32;100.00
47430;BME280;33181;49.246;7.372;2023-12-28T04:33:34;98961.13;;;7.24;100.00
47430;BME280;33181;49.246;7.372;2023-12-28T04:36:03;98952.25;;;7.27;100.00
47430;BME280;33181;49.246;7.372;2023-12-28T04:38:30;98951.16;;;7.16;100.00
47430;BME280;33181;49.246;7.372;2023-12-28T04:40:57;98936.88;;;7.22;100.00
47430;BME280;33181;49.246;7.372;2023-12-28T04:43:23;98936.56;;;7.27;100.00
47430;BME280;33181;49.246;7.372;2023-12-28T04:45:52;98956.78;;;7.37;100.00
47430;BME280;33181;49.246;7.372;2023-12-28T04:48:18;98958.28;;;7.41;100.00
47430;BME280;33181;49.246;7.372;2023-12-28T04:50:48;98951.91;;;7.46;100.00
47430;BME280;33181;49.246;7.372;2023-12-28T04:53:14;98956.94;;;7.49;100.00
47430;BME280;33181;49.246;7.372;2023-12-28T04:55:40;98951.31;;;7.55;100.00
47430;BME280;33181;49.246;7.372;2023-12-28T04:58:05;98949.66;;;7.54;100.00
47430;BME280;33181;49.246;7.372;2023-12-28T05:00:31;98939.19;;;7.54;100.00
47430;BME280;33181;49.246;7.372;2023-12-28T05:02:57;98937.69;;;7.50;100.00
47430;BME280;33181;49.246;7.372;2023-12-28T05:05:22;98948.50;;;7.58;100.00
47430;BME280;33181;49.246;7.372;2023-12-28T05:07:48;98954.72;;;7.70;100.00
47430;BME280;33181;49.246;7.372;2023-12-28T05:10:14;98948.53;;;7.71;100.00
47430;BME280;33181;49.246;7.372;2023-12-28T05:12:40;98949.28;;;7.73;100.00
47430;BME280;33181;49.246;7.372;2023-12-28T05:15:06;98955.56;;;7.70;100.00
47430;BME280;33181;49.246;7.372;2023-12-28T05:17:32;98961.28;;;7.75;100.00
47430;BME280;33181;49.246;7.372;2023-12-28T05:19:57;98952.53;;;7.76;100.00
47430;BME280;33181;49.246;7.372;2023-12-28T05:22:23;98954.28;;;7.63;100.00
47430;BME280;33181;49.246;7.372;2023-12-28T05:24:49;98968.31;;;7.75;100.00
47430;BME280;33181;49.246;7.372;2023-12-28T05:27:14;98958.28;;;7.81;100.00
47430;BME280;33181;49.246;7.372;2023-12-28T05:29:40;98967.91;;;7.81;100.00
47430;BME280;33181;49.246;7.372;2023-12-28T05:32:06;98967.06;;;7.80;100.00
47430;BME280;33181;49.246;7.372;2023-12-28T05:34:32;98971.03;;;7.73;100.00
47430;BME280;33181;49.246;7.372;2023-12-28T05:36:58;98972.47;;;7.64;100.00
47430;BME280;33181;49.246;7.372;2023-12-28T05:39:23;98966.22;;;7.67;100.00
47430;BME280;33181;49.246;7.372;2023-12-28T05:41:49;98972.06;;;7.71;100.00
47430;BME280;33181;49.246;7.372;2023-12-28T05:44:16;98971.31;;;7.69;100.00
47430;BME280;33181;49.246;7.372;2023-12-28T05:46:42;98981.69;;;7.70;100.00
47430;BME280;33181;49.246;7.372;2023-12-28T05:49:08;98979.59;;;7.75;100.00
47430;BME280;33181;49.246;7.372;2023-12-28T05:51:41;98970.81;;;7.63;100.00
47430;BME280;33181;49.246;7.372;2023-12-28T05:54:07;98970.72;;;7.78;100.00
47430;BME280;33181;49.246;7.372;2023-12-28T05:56:33;98974.38;;;7.75;100.00
47430;BME280;33181;49.246;7.372;2023-12-28T05:58:59;98985.56;;;7.77;100.00
47430;BME280;33181;49.246;7.372;2023-12-28T06:01:25;98988.81;;;7.81;100.00
47430;BME280;33181;49.246;7.372;2023-12-28T06:03:50;98993.78;;;7.85;100.00
47430;BME280;33181;49.246;7.372;2023-12-28T06:06:18;98999.22;;;7.82;100.00
47430;BME280;33181;49.246;7.372;2023-12-28T06:08:44;98992.94;;;7.85;100.00
47430;BME280;33181;49.246;7.372;2023-12-28T06:11:12;99002.06;;;7.92;100.00
47430;BME280;33181;49.246;7.372;2023-12-28T06:13:38;98997.66;;;7.93;100.00
47430;BME280;33181;49.246;7.372;2023-12-28T06:16:04;99001.66;;;7.98;100.00
47430;BME280;33181;49.246;7.372;2023-12-28T06:18:30;99000.06;;;7.96;100.00
47430;BME280;33181;49.246;7.372;2023-12-28T06:20:55;99002.34;;;7.87;100.00
47430;BME280;33181;49.246;7.372;2023-12-28T06:23:21;99002.69;;;7.96;100.00
47430;BME280;33181;49.246;7.372;2023-12-28T06:25:47;98996.22;;;8.01;100.00
47430;BME280;33181;49.246;7.372;2023-12-28T06:28:12;99007.00;;;8.09;100.00
47430;BME280;33181;49.246;7.372;2023-12-28T06:30:38;99006.69;;;8.14;100.00
47430;BME280;33181;49.246;7.372;2023-12-28T06:33:05;99001.03;;;8.07;100.00
47430;BME280;33181;49.246;7.372;2023-12-28T06:35:31;98992.25;;;8.08;100.00
47430;BME280;33181;49.246;7.372;2023-12-28T06:37:56;98995.84;;;8.20;100.00
47430;BME280;33181;49.246;7.372;2023-12-28T06:40:22;98993.28;;;8.06;100.00
47430;BME280;33181;49.246;7.372;2023-12-28T06:42:48;98982.38;;;7.99;100.00
47430;BME280;33181;49.246;7.372;2023-12-28T06:45:14;98977.91;;;8.01;100.00
47430;BME280;33181;49.246;7.372;2023-12-28T06:47:39;98973.16;;;7.94;100.00
47430;BME280;33181;49.246;7.372;2023-12-28T06:50:06;98970.66;;;7.92;100.00
47430;BME280;33181;49.246;7.372;2023-12-28T06:52:32;98973.16;;;7.94;100.00
47430;BME280;33181;49.246;7.372;2023-12-28T06:54:58;98982.72;;;7.95;100.00
47430;BME280;33181;49.246;7.372;2023-12-28T06:57:24;98986.38;;;8.05;100.00
47430;BME280;33181;49.246;7.372;2023-12-28T06:59:50;98985.22;;;8.09;100.00
47430;BME280;33181;49.246;7.372;2023-12-28T07:02:16;98988.78;;;8.08;100.00
47430;BME280;33181;49.246;7.372;2023-12-28T07:04:41;98994.75;;;8.10;100.00
47430;BME280;33181;49.246;7.372;2023-12-28T07:07:07;98997.53;;;7.94;100.00
47430;BME280;33181;49.246;7.372;2023-12-28T07:09:33;99003.94;;;8.03;100.00
47430;BME280;33181;49.246;7.372;2023-12-28T07:11:59;99005.97;;;8.12;100.00
47430;BME280;33181;49.246;7.372;2023-12-28T07:14:25;98998.91;;;8.00;100.00
47430;BME280;33181;49.246;7.372;2023-12-28T07:16:50;99006.75;;;8.00;100.00
47430;BME280;33181;49.246;7.372;2023-12-28T07:19:16;99015.44;;;8.00;100.00
47430;BME280;33181;49.246;7.372;2023-12-28T07:21:42;99027.88;;;7.97;100.00
47430;BME280;33181;49.246;7.372;2023-12-28T07:24:07;99028.72;;;7.97;100.00
47430;BME280;33181;49.246;7.372;2023-12-28T07:26:33;99033.34;;;8.06;100.00
47430;BME280;33181;49.246;7.372;2023-12-28T07:28:59;99028.44;;;8.02;100.00
47430;BME280;33181;49.246;7.372;2023-12-28T07:31:26;99021.97;;;8.07;100.00
47430;BME280;33181;49.246;7.372;2023-12-28T07:33:52;99031.25;;;7.99;100.00
47430;BME280;33181;49.246;7.372;2023-12-28T07:36:19;99026.44;;;7.93;100.00
47430;BME280;33181;49.246;7.372;2023-12-28T07:38:45;99016.94;;;8.04;100.00
47430;BME280;33181;49.246;7.372;2023-12-28T07:41:10;99022.16;;;8.04;100.00
47430;BME280;33181;49.246;7.372;2023-12-28T07:43:36;99016.91;;;7.92;100.00
47430;BME280;33181;49.246;7.372;2023-12-28T07:46:03;99032.72;;;8.03;100.00
47430;BME280;33181;49.246;7.372;2023-12-28T07:48:30;99035.31;;;7.90;100.00
47430;BME280;33181;49.246;7.372;2023-12-28T07:50:57;99031.13;;;8.00;100.00
47430;BME280;33181;49.246;7.372;2023-12-28T07:53:22;99026.06;;;8.11;100.00
47430;BME280;33181;49.246;7.372;2023-12-28T07:55:48;99026.34;;;8.07;100.00
47430;BME280;33181;49.246;7.372;2023-12-28T07:58:15;99028.25;;;8.05;100.00
47430;BME280;33181;49.246;7.372;2023-12-28T08:00:41;99036.53;;;8.11;100.00
47430;BME280;33181;49.246;7.372;2023-12-28T08:03:06;99028.44;;;8.02;100.00
47430;BME280;33181;49.246;7.372;2023-12-28T08:05:32;99046.16;;;8.11;100.00
47430;BME280;33181;49.246;7.372;2023-12-28T08:07:58;99035.34;;;8.03;100.00
47430;BME280;33181;49.246;7.372;2023-12-28T08:10:24;99039.53;;;8.05;100.00
47430;BME280;33181;49.246;7.372;2023-12-28T08:12:49;99038.81;;;8.16;100.00
47430;BME280;33181;49.246;7.372;2023-12-28T08:15:15;99040.13;;;8.23;100.00
47430;BME280;33181;49.246;7.372;2023-12-28T08:17:41;99035.16;;;8.19;100.00
47430;BME280;33181;49.246;7.372;2023-12-28T08:20:07;99038.31;;;8.24;100.00
47430;BME280;33181;49.246;7.372;2023-12-28T08:22:33;99038.22;;;8.25;100.00
47430;BME280;33181;49.246;7.372;2023-12-28T08:24:59;99037.97;;;8.16;100.00
47430;BME280;33181;49.246;7.372;2023-12-28T08:27:25;99047.81;;;8.12;100.00
47430;BME280;33181;49.246;7.372;2023-12-28T08:29:50;99041.22;;;8.19;100.00
47430;BME280;33181;49.246;7.372;2023-12-28T08:32:16;99042.38;;;8.15;100.00
47430;BME280;33181;49.246;7.372;2023-12-28T08:34:43;99043.13;;;8.17;100.00
47430;BME280;33181;49.246;7.372;2023-12-28T08:37:08;99052.66;;;8.18;100.00
47430;BME280;33181;49.246;7.372;2023-12-28T08:39:34;99041.00;;;8.09;100.00
47430;BME280;33181;49.246;7.372;2023-12-28T08:42:00;99044.38;;;8.11;100.00
47430;BME280;33181;49.246;7.372;2023-12-28T08:44:26;99051.91;;;8.16;100.00
47430;BME280;33181;49.246;7.372;2023-12-28T08:46:52;99051.50;;;8.22;100.00
47430;BME280;33181;49.246;7.372;2023-12-28T08:49:17;99058.50;;;8.22;100.00
47430;BME280;33181;49.246;7.372;2023-12-28T08:51:43;99051.72;;;8.32;100.00
47430;BME280;33181;49.246;7.372;2023-12-28T08:54:09;99061.25;;;8.20;100.00
47430;BME280;33181;49.246;7.372;2023-12-28T08:56:35;99061.66;;;8.14;100.00
47430;BME280;33181;49.246;7.372;2023-12-28T08:59:01;99056.94;;;8.19;100.00
47430;BME280;33181;49.246;7.372;2023-12-28T09:01:27;99064.25;;;8.14;100.00
47430;BME280;33181;49.246;7.372;2023-12-28T09:03:55;99062.91;;;8.21;100.00
47430;BME280;33181;49.246;7.372;2023-12-28T09:06:21;99067.91;;;8.11;100.00
47430;BME280;33181;49.246;7.372;2023-12-28T09:08:50;99059.78;;;8.29;100.00
47430;BME280;33181;49.246;7.372;2023-12-28T09:11:17;99057.34;;;8.13;100.00
47430;BME280;33181;49.246;7.372;2023-12-28T09:13:43;99049.94;;;8.20;100.00
47430;BME280;33181;49.246;7.372;2023-12-28T09:16:13;99052.59;;;8.32;100.00
47430;BME280;33181;49.246;7.372;2023-12-28T09:18:41;99059.78;;;8.29;100.00
47430;BME280;33181;49.246;7.372;2023-12-28T09:21:08;99055.09;;;8.34;100.00
47430;BME280;33181;49.246;7.372;2023-12-28T09:23:35;99053.69;;;8.43;100.00
47430;BME280;33181;49.246;7.372;2023-12-28T09:26:03;99055.25;;;8.45;100.00
47430;BME280;33181;49.246;7.372;2023-12-28T09:28:30;99060.78;;;8.41;100.00
47430;BME280;33181;49.246;7.372;2023-12-28T09:30:58;99047.84;;;8.25;100.00
47430;BME280;33181;49.246;7.372;2023-12-28T09:33:24;99050.47;;;8.38;100.00
47430;BME280;33181;49.246;7.372;2023-12-28T09:35:50;99053.97;;;8.51;100.00
47430;BME280;33181;49.246;7.372;2023-12-28T09:38:15;99054.09;;;8.49;100.00
47430;BME280;33181;49.246;7.372;2023-12-28T09:40:42;99063.84;;;8.60;100.00
47430;BME280;33181;49.246;7.372;2023-12-28T09:45:53;99058.94;;;8.68;100.00
47430;BME280;33181;49.246;7.372;2023-12-28T09:48:20;99052.22;;;8.64;100.00
47430;BME280;33181;49.246;7.372;2023-12-28T09:50:54;99052.94;;;8.66;100.00
47430;BME280;33181;49.246;7.372;2023-12-28T09:53:24;99060.72;;;8.55;100.00
47430;BME280;33181;49.246;7.372;2023-12-28T09:55:50;99046.13;;;8.64;100.00
47430;BME280;33181;49.246;7.372;2023-12-28T09:58:21;99046.13;;;8.64;100.00
47430;BME280;33181;49.246;7.372;2023-12-28T10:00:49;99047.22;;;8.61;100.00
47430;BME280;33181;49.246;7.372;2023-12-28T10:03:16;99046.13;;;8.64;100.00
47430;BME280;33181;49.246;7.372;2023-12-28T10:05:46;99048.66;;;8.52;100.00
47430;BME280;33181;49.246;7.372;2023-12-28T10:08:16;99044.16;;;8.54;100.00
47430;BME280;33181;49.246;7.372;2023-12-28T10:10:43;99044.78;;;8.58;100.00
47430;BME280;33181;49.246;7.372;2023-12-28T10:13:10;99045.94;;;8.67;100.00
47430;BME280;33181;49.246;7.372;2023-12-28T10:15:36;99041.56;;;8.80;100.00
47430;BME280;33181;49.246;7.372;2023-12-28T10:18:05;99048.25;;;8.84;100.00
47430;BME280;33181;49.246;7.372;2023-12-28T10:20:32;99054.31;;;8.85;100.00
47430;BME280;33181;49.246;7.372;2023-12-28T10:22:59;99060.38;;;8.85;100.00
47430;BME280;33181;49.246;7.372;2023-12-28T10:25:24;99058.81;;;8.82;100.00
47430;BME280;33181;49.246;7.372;2023-12-28T10:27:53;99048.03;;;8.87;100.00
47430;BME280;33181;49.246;7.372;2023-12-28T10:30:21;99050.75;;;8.86;100.00
47430;BME280;33181;49.246;7.372;2023-12-28T10:32:47;99047.69;;;8.92;100.00
47430;BME280;33181;49.246;7.372;2023-12-28T10:35:12;99041.75;;;8.90;100.00
47430;BME280;33181;49.246;7.372;2023-12-28T10:37:42;99044.38;;;8.90;100.00
47430;BME280;33181;49.246;7.372;2023-12-28T10:40:14;99031.69;;;8.84;100.00
47430;BME280;33181;49.246;7.372;2023-12-28T10:42:57;99031.28;;;8.77;100.00
47430;BME280;33181;49.246;7.372;2023-12-28T10:45:26;99044.16;;;8.67;100.00
47430;BME280;33181;49.246;7.372;2023-12-28T10:48:11;99025.84;;;8.67;100.00
47430;BME280;33181;49.246;7.372;2023-12-28T10:50:50;99025.19;;;8.64;100.00
47430;BME280;33181;49.246;7.372;2023-12-28T10:53:38;99029.38;;;8.66;100.00
47430;BME280;33181;49.246;7.372;2023-12-28T10:58:53;99026.47;;;8.58;100.00
47430;BME280;33181;49.246;7.372;2023-12-28T11:01:38;99029.91;;;8.58;100.00
47430;BME280;33181;49.246;7.372;2023-12-28T11:06:55;99020.91;;;8.63;100.00
47430;BME280;33181;49.246;7.372;2023-12-28T11:09:22;99030.34;;;8.65;100.00
47430;BME280;33181;49.246;7.372;2023-12-28T11:11:51;99019.94;;;8.51;100.00
47430;BME280;33181;49.246;7.372;2023-12-28T11:14:18;99018.28;;;8.50;100.00
47430;BME280;33181;49.246;7.372;2023-12-28T11:16:44;99014.72;;;8.51;100.00
47430;BME280;33181;49.246;7.372;2023-12-28T11:19:11;99008.44;;;8.53;100.00
47430;BME280;33181;49.246;7.372;2023-12-28T11:21:38;99004.78;;;8.56;100.00
47430;BME280;33181;49.246;7.372;2023-12-28T11:24:05;99004.97;;;8.40;100.00
47430;BME280;33181;49.246;7.372;2023-12-28T11:26:31;98999.34;;;8.46;100.00
47430;BME280;33181;49.246;7.372;2023-12-28T11:29:04;99000.50;;;8.42;100.00
47430;BME280;33181;49.246;7.372;2023-12-28T11:31:34;98996.28;;;8.40;100.00
47430;BME280;33181;49.246;7.372;2023-12-28T11:34:01;98994.72;;;8.50;100.00
47430;BME280;33181;49.246;7.372;2023-12-28T11:36:43;98988.13;;;8.57;100.00
47430;BME280;33181;49.246;7.372;2023-12-28T11:39:10;98992.72;;;8.53;100.00
47430;BME280;33181;49.246;7.372;2023-12-28T11:41:36;98989.81;;;8.58;100.00
47430;BME280;33181;49.246;7.372;2023-12-28T11:44:04;98985.72;;;8.54;100.00
47430;BME280;33181;49.246;7.372;2023-12-28T11:46:35;98986.78;;;8.51;100.00
47430;BME280;33181;49.246;7.372;2023-12-28T11:49:08;98990.44;;;8.49;100.00
47430;BME280;33181;49.246;7.372;2023-12-28T11:51:40;98981.84;;;8.47;100.00
47430;BME280;33181;49.246;7.372;2023-12-28T11:54:06;98980.38;;;8.43;100.00
47430;BME280;33181;49.246;7.372;2023-12-28T11:56:33;98982.47;;;8.50;100.00
47430;BME280;33181;49.246;7.372;2023-12-28T11:58:59;98977.22;;;8.50;100.00
47430;BME280;33181;49.246;7.372;2023-12-28T12:01:25;98987.91;;;8.47;100.00
47430;BME280;33181;49.246;7.372;2023-12-28T12:03:50;98978.69;;;8.42;100.00
47430;BME280;33181;49.246;7.372;2023-12-28T12:06:16;98980.06;;;8.60;100.00
47430;BME280;33181;49.246;7.372;2023-12-28T12:08:49;98985.72;;;8.54;100.00
47430;BME280;33181;49.246;7.372;2023-12-28T12:11:17;98981.53;;;8.64;100.00
47430;BME280;33181;49.246;7.372;2023-12-28T12:13:44;98985.41;;;8.71;100.00
47430;BME280;33181;49.246;7.372;2023-12-28T12:16:09;98983.53;;;8.73;100.00
47430;BME280;33181;49.246;7.372;2023-12-28T12:18:35;98986.56;;;8.67;100.00
47430;BME280;33181;49.246;7.372;2023-12-28T12:21:02;98981.41;;;8.66;100.00
47430;BME280;33181;49.246;7.372;2023-12-28T12:23:28;98984.66;;;8.69;100.00
47430;BME280;33181;49.246;7.372;2023-12-28T12:25:54;98961.63;;;8.74;100.00
47430;BME280;33181;49.246;7.372;2023-12-28T12:28:20;98966.84;;;8.74;100.00
47430;BME280;33181;49.246;7.372;2023-12-28T12:30:54;98979.31;;;8.71;100.00
47430;BME280;33181;49.246;7.372;2023-12-28T12:33:21;98970.94;;;8.78;100.00
47430;BME280;33181;49.246;7.372;2023-12-28T12:35:49;98966.66;;;8.77;100.00
47430;BME280;33181;49.246;7.372;2023-12-28T12:38:16;98969.66;;;8.84;100.00
47430;BME280;33181;49.246;7.372;2023-12-28T12:40:42;98968.31;;;8.78;100.00
47430;BME280;33181;49.246;7.372;2023-12-28T12:43:08;98968.09;;;8.81;100.00
47430;BME280;33181;49.246;7.372;2023-12-28T12:45:35;98968.41;;;8.90;100.00
47430;BME280;33181;49.246;7.372;2023-12-28T12:48:03;98965.78;;;8.90;100.00
47430;BME280;33181;49.246;7.372;2023-12-28T12:50:31;98959.94;;;8.86;100.00
47430;BME280;33181;49.246;7.372;2023-12-28T12:53:04;98963.34;;;8.99;100.00
47430;BME280;33181;49.246;7.372;2023-12-28T12:55:30;98966.50;;;8.92;100.00
47430;BME280;33181;49.246;7.372;2023-12-28T12:57:55;98961.16;;;8.93;100.00
47430;BME280;33181;49.246;7.372;2023-12-28T13:00:22;98953.78;;;8.98;100.00
47430;BME280;33181;49.246;7.372;2023-12-28T13:02:50;98962.31;;;9.02;100.00
47430;BME280;33181;49.246;7.372;2023-12-28T13:05:21;98952.44;;;9.05;100.00
47430;BME280;33181;49.246;7.372;2023-12-28T13:07:46;98949.25;;;9.13;100.00
47430;BME280;33181;49.246;7.372;2023-12-28T13:10:12;98950.97;;;9.14;100.00